Time;durP1;ratioP1;P1;durP2;ratioP2;P2;SDS_P1;SDS_P2;PMS_P1;PMS_P2;Temp;Humidity;BMP_temperature;BMP_pressure;BME280_temperature;BME280_humidity;BME280_pressure;Samples;Min_cycle;Max_cycle;Signal;HPM_P1;HPM_P2
2021/08/07 00:00:20;;;;;;;1.85;1.70;;;21.20;99.90;;;;;;5038858;28;20312;-70
2021/08/07 00:02:47;;;;;;;1.90;1.80;;;21.30;99.90;;;;;;5040746;28;20226;-71
2021/08/07 00:05:15;;;;;;;1.90;1.75;;;21.30;99.90;;;;;;5033739;28;20215;-70
2021/08/07 00:07:42;;;;;;;1.92;1.80;;;21.30;99.90;;;;;;5046108;28;20206;-71
2021/08/07 00:10:10;;;;;;;1.83;1.73;;;21.30;99.90;;;;;;5047739;28;20223;-72
2021/08/07 00:12:38;;;;;;;1.58;1.48;;;21.20;99.90;;;;;;5038018;28;20885;-71
2021/08/07 00:15:07;;;;;;;1.88;1.77;;;21.20;99.90;;;;;;5036679;28;20214;-71
2021/08/07 00:17:34;;;;;;;1.70;1.60;;;21.10;99.90;;;;;;5038443;28;20205;-72
2021/08/07 00:20:01;;;;;;;2.00;1.90;;;21.10;99.90;;;;;;5037676;28;20716;-71
2021/08/07 00:22:29;;;;;;;2.63;2.20;;;21.00;99.90;;;;;;5033406;28;20200;-71
2021/08/07 00:24:56;;;;;;;2.17;1.98;;;20.90;99.90;;;;;;5038280;28;20220;-71
2021/08/07 00:27:23;;;;;;;2.13;1.70;;;20.90;99.90;;;;;;5040713;28;20639;-71
2021/08/07 00:29:51;;;;;;;1.95;1.85;;;20.90;99.90;;;;;;5038198;28;20843;-71
2021/08/07 00:32:18;;;;;;;1.83;1.73;;;21.00;99.90;;;;;;5039698;28;20650;-71
2021/08/07 00:34:45;;;;;;;1.77;1.67;;;21.00;99.90;;;;;;5038671;28;20272;-71
2021/08/07 00:37:12;;;;;;;1.75;1.65;;;21.00;99.90;;;;;;5044252;28;20203;-71
2021/08/07 00:39:40;;;;;;;2.60;1.85;;;21.00;99.90;;;;;;5042554;28;20619;-71
2021/08/07 00:42:07;;;;;;;1.77;1.65;;;21.00;99.90;;;;;;5038520;28;20196;-71
2021/08/07 00:44:34;;;;;;;1.92;1.77;;;21.00;99.90;;;;;;5045380;28;20215;-71
2021/08/07 00:47:01;;;;;;;1.95;1.75;;;21.00;99.90;;;;;;5040348;28;20195;-71
2021/08/07 00:49:28;;;;;;;2.10;2.00;;;20.90;99.90;;;;;;5041711;28;20636;-72
2021/08/07 00:51:55;;;;;;;2.30;2.10;;;20.90;99.90;;;;;;5038195;28;20201;-70
2021/08/07 00:54:23;;;;;;;2.42;2.10;;;20.80;99.90;;;;;;5054073;28;20235;-71
2021/08/07 00:56:51;;;;;;;1.90;1.80;;;20.80;99.90;;;;;;5044908;28;20252;-71
2021/08/07 00:59:18;;;;;;;2.40;2.20;;;20.80;99.90;;;;;;5041916;28;20815;-70
2021/08/07 01:01:49;;;;;;;2.67;2.03;;;20.70;99.90;;;;;;5040427;28;20241;-71
2021/08/07 01:04:20;;;;;;;2.30;2.10;;;20.80;99.90;;;;;;5038038;28;20284;-71
2021/08/07 01:06:54;;;;;;;1.95;1.83;;;20.80;99.90;;;;;;5040693;28;20191;-71
2021/08/07 01:09:29;;;;;;;2.25;1.90;;;20.60;99.90;;;;;;5040528;28;20231;-70
2021/08/07 01:12:02;;;;;;;2.40;2.20;;;20.60;99.90;;;;;;5040030;28;20257;-71
2021/08/07 01:14:36;;;;;;;2.20;2.00;;;20.50;99.90;;;;;;5037305;28;20778;-71
2021/08/07 01:17:05;;;;;;;2.10;1.90;;;20.50;99.90;;;;;;5042735;28;20662;-71
2021/08/07 01:19:39;;;;;;;2.20;2.00;;;20.60;99.90;;;;;;5040901;28;20272;-71
2021/08/07 01:22:06;;;;;;;2.03;1.80;;;20.60;99.90;;;;;;5041996;28;20199;-71
2021/08/07 01:24:38;;;;;;;2.92;1.90;;;20.60;99.90;;;;;;5041673;28;20227;-71
2021/08/07 01:27:17;;;;;;;1.98;1.88;;;20.70;99.90;;;;;;5041267;28;20195;-71
2021/08/07 01:29:45;;;;;;;2.00;1.90;;;20.70;99.90;;;;;;5038921;28;20222;-70
2021/08/07 01:32:12;;;;;;;1.77;1.67;;;20.60;99.90;;;;;;5041754;28;20206;-71
2021/08/07 01:34:40;;;;;;;1.80;1.70;;;20.60;99.90;;;;;;5042098;28;20958;-71
2021/08/07 01:37:08;;;;;;;1.90;1.80;;;20.50;99.90;;;;;;5042545;28;20240;-71
2021/08/07 01:39:35;;;;;;;2.30;2.10;;;20.50;99.90;;;;;;5045323;28;20215;-71
2021/08/07 01:42:02;;;;;;;2.13;1.80;;;20.40;99.90;;;;;;5046305;28;20715;-71
2021/08/07 01:44:30;;;;;;;1.92;1.80;;;20.40;99.90;;;;;;5042708;28;20219;-71
2021/08/07 01:47:03;;;;;;;3.03;2.03;;;20.40;99.90;;;;;;5042295;28;20203;-71
2021/08/07 01:49:37;;;;;;;2.17;2.00;;;20.40;99.90;;;;;;5042631;28;20268;-71
2021/08/07 01:52:07;;;;;;;1.85;1.75;;;20.40;99.90;;;;;;5039121;28;20240;-72
2021/08/07 01:54:41;;;;;;;2.03;1.80;;;20.40;99.90;;;;;;5036880;28;20341;-71
2021/08/07 01:57:12;;;;;;;1.80;1.70;;;20.40;99.90;;;;;;5046771;28;20203;-71
2021/08/07 01:59:41;;;;;;;2.00;1.90;;;20.40;99.90;;;;;;5038603;28;20273;-71
2021/08/07 02:02:09;;;;;;;2.40;2.20;;;20.40;99.90;;;;;;5039064;28;20277;-71
2021/08/07 02:04:37;;;;;;;2.15;1.98;;;20.40;99.90;;;;;;5038386;28;20304;-71
2021/08/07 02:07:04;;;;;;;1.80;1.70;;;20.40;99.90;;;;;;5041493;28;20199;-71
2021/08/07 02:09:32;;;;;;;2.50;2.00;;;20.40;99.90;;;;;;5042628;28;20222;-71
2021/08/07 02:12:00;;;;;;;2.33;2.00;;;20.40;99.90;;;;;;5037318;28;20196;-71
2021/08/07 02:14:28;;;;;;;1.95;1.85;;;20.40;99.90;;;;;;5037156;28;20230;-71
2021/08/07 02:16:56;;;;;;;1.85;1.75;;;20.40;99.90;;;;;;5042798;28;20207;-72
2021/08/07 02:19:24;;;;;;;1.95;1.85;;;20.40;99.90;;;;;;5039554;28;20214;-71
2021/08/07 02:21:51;;;;;;;1.90;1.80;;;20.50;99.90;;;;;;5043171;28;20241;-71
2021/08/07 02:24:18;;;;;;;2.13;1.70;;;20.50;99.90;;;;;;5045355;28;20230;-72
2021/08/07 02:26:46;;;;;;;1.95;1.80;;;20.50;99.90;;;;;;5054008;28;20191;-71
2021/08/07 02:29:13;;;;;;;2.15;1.95;;;20.50;99.90;;;;;;5043823;28;20249;-71
2021/08/07 02:31:42;;;;;;;2.13;1.92;;;20.50;99.90;;;;;;5039916;28;20253;-72
2021/08/07 02:34:12;;;;;;;2.42;2.20;;;20.50;99.90;;;;;;5043075;28;20234;-71
2021/08/07 02:36:39;;;;;;;2.58;2.13;;;20.40;99.90;;;;;;5038907;28;20195;-72
2021/08/07 02:39:07;;;;;;;2.42;2.22;;;20.40;99.90;;;;;;5043281;28;20911;-71
2021/08/07 02:41:34;;;;;;;2.30;2.13;;;20.40;99.90;;;;;;5038480;28;20190;-72
2021/08/07 02:44:02;;;;;;;2.72;1.88;;;20.40;99.90;;;;;;5044285;28;20284;-71
2021/08/07 02:46:32;;;;;;;2.05;1.95;;;20.40;99.90;;;;;;5038418;28;20245;-71
2021/08/07 02:48:59;;;;;;;2.58;2.38;;;20.20;99.90;;;;;;5041314;28;20661;-72
2021/08/07 02:51:28;;;;;;;2.88;2.40;;;20.20;99.90;;;;;;5038597;28;20207;-71
2021/08/07 02:53:56;;;;;;;2.40;2.20;;;20.20;99.90;;;;;;5040695;28;20617;-72
2021/08/07 02:56:23;;;;;;;2.30;2.05;;;20.20;99.90;;;;;;5039545;28;20630;-71
2021/08/07 02:58:50;;;;;;;1.80;1.70;;;20.30;99.90;;;;;;5038597;28;20542;-71
2021/08/07 03:01:17;;;;;;;2.35;2.13;;;20.30;99.90;;;;;;5041071;28;20191;-72
2021/08/07 03:03:44;;;;;;;2.10;2.00;;;20.30;99.90;;;;;;5039186;28;20222;-71
2021/08/07 03:06:11;;;;;;;2.25;2.15;;;20.30;99.90;;;;;;5041055;28;20219;-71
2021/08/07 03:08:40;;;;;;;2.15;2.03;;;20.30;99.90;;;;;;5037965;28;20222;-72
2021/08/07 03:11:07;;;;;;;2.50;2.30;;;20.30;99.90;;;;;;5050708;28;20219;-71
2021/08/07 03:13:34;;;;;;;2.63;2.28;;;20.30;99.90;;;;;;5044290;28;20211;-71
2021/08/07 03:16:01;;;;;;;2.00;1.90;;;20.40;99.90;;;;;;5042457;28;20223;-72
2021/08/07 03:18:28;;;;;;;1.90;1.80;;;20.40;99.90;;;;;;5041699;28;20661;-71
2021/08/07 03:20:57;;;;;;;2.40;2.20;;;20.40;99.90;;;;;;5040148;28;20257;-71
2021/08/07 03:23:24;;;;;;;1.90;1.80;;;20.40;99.90;;;;;;5037016;28;20221;-71
2021/08/07 03:25:53;;;;;;;2.00;1.90;;;20.30;99.90;;;;;;5036824;28;20223;-72
2021/08/07 03:28:20;;;;;;;2.00;1.90;;;20.30;99.90;;;;;;5038297;28;20206;-71
2021/08/07 03:30:47;;;;;;;2.42;2.10;;;20.30;99.90;;;;;;5044357;28;20645;-71
2021/08/07 03:33:14;;;;;;;2.08;1.98;;;20.30;99.90;;;;;;5041481;28;20716;-72
2021/08/07 03:35:41;;;;;;;2.33;2.13;;;20.30;99.90;;;;;;5040829;28;20223;-73
2021/08/07 03:38:08;;;;;;;3.47;2.38;;;20.30;99.90;;;;;;5041585;28;20203;-72
2021/08/07 03:40:35;;;;;;;2.55;2.35;;;20.20;99.90;;;;;;5038134;28;20647;-71
2021/08/07 03:43:04;;;;;;;2.17;2.08;;;20.20;99.90;;;;;;5041072;28;20216;-71
2021/08/07 03:45:31;;;;;;;2.20;2.00;;;20.10;99.90;;;;;;5041052;28;20223;-72
2021/08/07 03:47:58;;;;;;;2.15;2.05;;;20.10;99.90;;;;;;5044324;28;20203;-71
2021/08/07 03:50:25;;;;;;;2.40;2.20;;;20.10;99.90;;;;;;5038408;28;20724;-72
2021/08/07 03:52:52;;;;;;;3.00;2.50;;;20.10;99.90;;;;;;5035353;28;20642;-71
2021/08/07 03:55:19;;;;;;;2.20;2.00;;;20.00;99.90;;;;;;5040838;28;20268;-72
2021/08/07 03:57:48;;;;;;;2.45;2.17;;;20.00;99.90;;;;;;5050559;28;20199;-71
2021/08/07 04:00:18;;;;;;;1.95;1.85;;;20.00;99.90;;;;;;5039091;28;20215;-71
2021/08/07 04:02:45;;;;;;;2.00;1.90;;;20.00;99.90;;;;;;5038066;28;20223;-71
2021/08/07 04:05:12;;;;;;;3.15;2.83;;;20.00;99.90;;;;;;5035803;28;20616;-72
2021/08/07 04:07:39;;;;;;;2.60;2.40;;;20.00;99.90;;;;;;5041591;28;20211;-71
2021/08/07 04:10:07;;;;;;;2.65;2.45;;;19.80;99.90;;;;;;5041303;28;20662;-71
2021/08/07 04:12:35;;;;;;;2.70;2.45;;;19.70;99.90;;;;;;5037384;28;20715;-72
2021/08/07 04:15:02;;;;;;;2.30;2.10;;;19.70;99.90;;;;;;5038378;28;20220;-71
2021/08/07 04:17:30;;;;;;;3.17;2.80;;;19.80;99.90;;;;;;5039610;28;20207;-72
2021/08/07 04:19:57;;;;;;;2.47;2.28;;;19.90;99.90;;;;;;5042942;28;20721;-72
2021/08/07 04:22:25;;;;;;;2.58;2.30;;;20.00;99.90;;;;;;5040069;28;20196;-71
2021/08/07 04:24:52;;;;;;;2.42;2.22;;;20.00;99.90;;;;;;5042346;28;20231;-72
2021/08/07 04:27:20;;;;;;;2.38;2.20;;;20.10;99.90;;;;;;5040772;28;20269;-70
2021/08/07 04:29:48;;;;;;;2.83;2.63;;;20.20;99.90;;;;;;5040956;28;20230;-71
2021/08/07 04:32:15;;;;;;;2.80;2.42;;;20.10;99.90;;;;;;5038927;28;20295;-71
2021/08/07 04:34:43;;;;;;;2.70;2.50;;;20.10;99.90;;;;;;5040087;28;20280;-71
2021/08/07 04:37:10;;;;;;;2.72;2.53;;;20.20;99.90;;;;;;5040007;28;20257;-72
2021/08/07 04:39:37;;;;;;;2.88;2.60;;;20.10;99.90;;;;;;5041506;28;20218;-71
2021/08/07 04:42:05;;;;;;;2.33;2.20;;;20.00;99.90;;;;;;5050035;28;20200;-71
2021/08/07 04:44:32;;;;;;;3.15;2.95;;;19.80;99.90;;;;;;5044910;28;20227;-72
2021/08/07 04:46:59;;;;;;;2.42;2.22;;;19.90;99.90;;;;;;5042692;28;20681;-72
2021/08/07 04:49:26;;;;;;;2.63;2.42;;;20.00;99.90;;;;;;5040634;28;20274;-72
2021/08/07 04:51:54;;;;;;;2.33;2.08;;;20.00;99.90;;;;;;5045156;28;20651;-71
2021/08/07 04:54:21;;;;;;;3.17;2.63;;;20.00;99.90;;;;;;5040420;28;20273;-72
2021/08/07 04:56:48;;;;;;;2.78;2.58;;;20.00;99.90;;;;;;5044511;28;20253;-71
2021/08/07 04:59:15;;;;;;;2.58;2.38;;;19.90;99.90;;;;;;5040012;28;20199;-71
2021/08/07 05:01:42;;;;;;;2.65;2.38;;;19.80;99.90;;;;;;5035566;28;20265;-70
2021/08/07 05:04:12;;;;;;;2.33;2.13;;;19.70;99.90;;;;;;5052717;22;20293;-76
2021/08/07 05:06:39;;;;;;;2.63;2.42;;;19.60;99.90;;;;;;5005536;28;20240;-77
2021/08/07 05:09:08;;;;;;;2.83;2.53;;;19.60;99.90;;;;;;5011833;28;20228;-78
2021/08/07 05:11:36;;;;;;;2.58;2.42;;;19.70;99.90;;;;;;5007125;28;20232;-77
2021/08/07 05:14:03;;;;;;;3.35;2.65;;;19.80;99.90;;;;;;5006266;28;20223;-77
2021/08/07 05:16:30;;;;;;;2.38;2.17;;;19.90;99.90;;;;;;5008729;28;20231;-77
2021/08/07 05:18:57;;;;;;;2.63;2.42;;;19.90;99.90;;;;;;5008401;28;20192;-77
2021/08/07 05:21:24;;;;;;;1.90;1.80;;;19.90;99.90;;;;;;5010478;28;20266;-77
2021/08/07 05:23:51;;;;;;;2.15;2.05;;;20.00;99.90;;;;;;5008997;28;20224;-77
2021/08/07 05:26:20;;;;;;;2.17;2.05;;;20.00;99.90;;;;;;5012257;28;20273;-77
2021/08/07 05:28:47;;;;;;;3.17;2.53;;;20.10;99.90;;;;;;5011484;28;21910;-77
2021/08/07 05:31:14;;;;;;;2.63;2.30;;;20.20;99.90;;;;;;5008977;28;20244;-77
2021/08/07 05:33:41;;;;;;;2.22;1.98;;;20.20;99.90;;;;;;5009241;28;20220;-77
2021/08/07 05:36:08;;;;;;;2.70;2.50;;;20.20;99.90;;;;;;5008124;28;20224;-75
2021/08/07 05:38:35;;;;;;;4.20;2.85;;;20.20;99.90;;;;;;5005446;28;20204;-77
2021/08/07 05:41:02;;;;;;;2.58;2.28;;;20.20;99.90;;;;;;5014549;28;20776;-76
2021/08/07 05:43:30;;;;;;;2.22;2.03;;;20.40;99.90;;;;;;5004254;28;20224;-78
2021/08/07 05:45:58;;;;;;;2.63;2.30;;;20.40;99.90;;;;;;5007746;28;20706;-77
2021/08/07 05:48:24;;;;;;;3.78;2.80;;;20.60;99.90;;;;;;5009593;28;20251;-77
2021/08/07 05:50:52;;;;;;;3.38;3.15;;;20.60;99.90;;;;;;5010058;28;20216;-77
2021/08/07 05:53:18;;;;;;;3.72;3.17;;;20.50;99.90;;;;;;5007964;28;20270;-76
2021/08/07 05:55:46;;;;;;;3.35;3.05;;;20.50;99.90;;;;;;5003929;28;20625;-77
2021/08/07 05:58:13;;;;;;;3.40;3.10;;;20.50;99.90;;;;;;5011908;28;20258;-77
2021/08/07 06:00:41;;;;;;;2.83;2.20;;;20.40;99.90;;;;;;5011424;28;20270;-77
2021/08/07 06:03:08;;;;;;;2.50;2.30;;;20.40;99.90;;;;;;5010862;28;20270;-77
2021/08/07 06:05:35;;;;;;;3.78;2.40;;;20.50;99.90;;;;;;5009538;28;20212;-76
2021/08/07 06:08:02;;;;;;;2.90;2.60;;;20.60;99.90;;;;;;5009755;28;20247;-77
2021/08/07 06:10:29;;;;;;;2.38;2.17;;;20.60;99.90;;;;;;5012788;28;20220;-77
2021/08/07 06:12:56;;;;;;;2.28;2.08;;;20.60;99.90;;;;;;5009014;28;20655;-77
2021/08/07 06:15:24;;;;;;;4.13;2.60;;;20.70;99.90;;;;;;5009588;28;20262;-77
2021/08/07 06:17:52;;;;;;;2.45;2.25;;;20.80;99.90;;;;;;5009581;28;20200;-77
2021/08/07 06:20:20;;;;;;;3.25;2.53;;;20.80;99.90;;;;;;5010600;28;20235;-76
2021/08/07 06:22:47;;;;;;;3.33;2.60;;;20.80;99.90;;;;;;5010958;28;20200;-77
2021/08/07 06:25:14;;;;;;;3.25;2.70;;;20.60;99.90;;;;;;5010320;28;20640;-77
2021/08/07 06:27:41;;;;;;;3.00;2.80;;;20.50;99.90;;;;;;5010719;28;20200;-77
2021/08/07 06:30:09;;;;;;;3.65;2.67;;;20.40;99.90;;;;;;5008115;28;20224;-77
2021/08/07 06:32:36;;;;;;;2.55;2.15;;;20.40;99.90;;;;;;5009492;28;20207;-78
2021/08/07 06:35:06;;;;;;;2.40;2.20;;;20.50;99.90;;;;;;5008208;28;20224;-77
2021/08/07 06:37:33;;;;;;;3.00;2.80;;;20.60;99.90;;;;;;5009748;28;20607;-77
2021/08/07 06:40:00;;;;;;;3.05;2.33;;;20.60;99.90;;;;;;5010896;28;20216;-77
2021/08/07 06:42:27;;;;;;;2.97;2.72;;;20.50;99.90;;;;;;5006471;28;20208;-77
2021/08/07 06:44:54;;;;;;;2.40;2.20;;;20.60;99.90;;;;;;5004476;28;20285;-77
2021/08/07 06:47:21;;;;;;;2.80;2.60;;;20.70;99.90;;;;;;5005691;28;20275;-75
2021/08/07 06:49:48;;;;;;;2.58;2.38;;;20.90;99.90;;;;;;5009168;28;20227;-78
2021/08/07 06:52:16;;;;;;;2.45;2.25;;;21.10;99.90;;;;;;5010178;28;20216;-78
2021/08/07 06:54:43;;;;;;;2.30;2.20;;;21.20;99.90;;;;;;5011602;28;20224;-78
2021/08/07 06:57:16;;;;;;;3.15;2.05;;;21.40;99.90;;;;;;5009852;28;20608;-78
2021/08/07 06:59:43;;;;;;;2.30;2.10;;;21.50;99.90;;;;;;5007338;28;20279;-77
2021/08/07 07:02:10;;;;;;;2.65;2.45;;;21.60;99.90;;;;;;5005777;28;20193;-78
2021/08/07 07:04:40;;;;;;;3.63;3.10;;;21.60;99.90;;;;;;5006414;28;20249;-78
2021/08/07 07:07:07;;;;;;;4.07;3.58;;;21.60;99.90;;;;;;5009535;28;20196;-75
2021/08/07 07:09:36;;;;;;;3.25;3.05;;;21.70;99.90;;;;;;5010311;28;20201;-78
2021/08/07 07:12:03;;;;;;;3.30;3.00;;;21.80;99.90;;;;;;5007229;28;20228;-78
2021/08/07 07:14:30;;;;;;;3.33;3.03;;;22.00;99.90;;;;;;5000132;28;20219;-78
2021/08/07 07:16:57;;;;;;;3.88;2.80;;;22.00;99.90;;;;;;5002534;28;20200;-78
2021/08/07 07:19:29;;;;;;;4.90;3.40;;;22.00;99.90;;;;;;5004167;28;20254;-77
2021/08/07 07:21:57;;;;;;;2.97;2.70;;;22.10;99.90;;;;;;5005059;28;20282;-77
2021/08/07 07:24:24;;;;;;;3.38;3.08;;;22.10;99.90;;;;;;5008707;28;20224;-79
2021/08/07 07:26:52;;;;;;;3.45;2.80;;;22.00;99.90;;;;;;5010445;28;20250;-77
2021/08/07 07:29:19;;;;;;;3.03;2.83;;;22.00;99.90;;;;;;5009439;28;20622;-78
2021/08/07 07:31:46;;;;;;;4.25;3.35;;;22.00;99.90;;;;;;5008410;28;20286;-77
2021/08/07 07:34:13;;;;;;;3.30;3.00;;;22.10;99.90;;;;;;5012007;28;20764;-77
2021/08/07 07:36:40;;;;;;;4.72;2.70;;;22.40;99.90;;;;;;5010530;28;20830;-78
2021/08/07 07:39:07;;;;;;;6.55;3.10;;;22.70;99.90;;;;;;5008452;28;20540;-78
2021/08/07 07:41:34;;;;;;;3.35;3.00;;;23.10;99.90;;;;;;5011453;28;20216;-77
2021/08/07 07:44:03;;;;;;;3.47;3.17;;;23.30;99.90;;;;;;5012329;28;20216;-77
2021/08/07 07:46:30;;;;;;;3.78;2.63;;;23.30;99.90;;;;;;5011528;28;20636;-77
2021/08/07 07:48:57;;;;;;;3.75;2.70;;;23.20;99.90;;;;;;5007216;28;20663;-77
2021/08/07 07:51:24;;;;;;;3.00;2.80;;;22.90;99.90;;;;;;5013493;28;20219;-77
2021/08/07 07:53:51;;;;;;;3.20;2.88;;;22.90;99.90;;;;;;5010237;28;20212;-77
2021/08/07 07:56:20;;;;;;;3.92;3.15;;;23.00;99.90;;;;;;5008373;28;20634;-77
2021/08/07 07:58:47;;;;;;;2.78;2.58;;;23.10;99.90;;;;;;5010977;28;20188;-77
2021/08/07 08:01:15;;;;;;;3.03;2.60;;;23.20;99.90;;;;;;5009274;28;20277;-77
2021/08/07 08:03:42;;;;;;;3.03;2.83;;;23.10;99.90;;;;;;5017022;28;20220;-77
2021/08/07 08:06:11;;;;;;;3.22;2.90;;;23.20;99.90;;;;;;5011189;28;20216;-77
2021/08/07 08:08:38;;;;;;;3.00;2.70;;;23.50;99.90;;;;;;5010169;28;20205;-78
2021/08/07 08:11:06;;;;;;;3.30;3.00;;;23.50;99.90;;;;;;5012085;28;20220;-75
2021/08/07 08:13:33;;;;;;;4.28;3.10;;;23.20;99.90;;;;;;5010794;28;20223;-76
2021/08/07 08:16:00;;;;;;;2.92;2.70;;;23.10;99.90;;;;;;5010034;28;20270;-75
2021/08/07 08:18:28;;;;;;;3.08;2.85;;;22.90;99.90;;;;;;5012664;28;20617;-75
2021/08/07 08:20:58;;;;;;;3.20;2.90;;;23.00;99.90;;;;;;5011773;28;20212;-76
2021/08/07 08:23:25;;;;;;;3.58;2.97;;;23.10;99.90;;;;;;5011101;28;20197;-76
2021/08/07 08:25:52;;;;;;;3.38;3.08;;;23.20;99.90;;;;;;5011165;28;20840;-75
2021/08/07 08:28:19;;;;;;;4.07;3.30;;;23.40;99.90;;;;;;5013081;28;20737;-76
2021/08/07 08:30:46;;;;;;;3.10;2.80;;;23.40;99.90;;;;;;5013330;28;20250;-75
2021/08/07 08:33:13;;;;;;;3.00;2.70;;;23.40;99.90;;;;;;5011289;28;20196;-78
2021/08/07 08:35:42;;;;;;;3.63;3.15;;;23.10;99.90;;;;;;5011219;28;22528;-77
2021/08/07 08:38:10;;;;;;;3.78;3.20;;;23.10;99.90;;;;;;5009757;28;20200;-76
2021/08/07 08:40:38;;;;;;;3.45;3.15;;;23.00;99.90;;;;;;5002790;28;20216;-75
2021/08/07 08:43:05;;;;;;;3.00;2.70;;;22.70;99.90;;;;;;5014178;28;20200;-77
2021/08/07 08:45:32;;;;;;;3.53;3.20;;;22.60;99.90;;;;;;5008268;28;20213;-77
2021/08/07 08:48:01;;;;;;;3.45;2.95;;;22.70;99.90;;;;;;5010837;28;20924;-77
2021/08/07 08:50:29;;;;;;;3.22;3.00;;;22.80;99.90;;;;;;5005789;28;20224;-77
2021/08/07 08:52:58;;;;;;;4.20;3.10;;;23.00;99.90;;;;;;5009164;28;20224;-75
2021/08/07 08:55:25;;;;;;;5.13;3.17;;;23.20;99.90;;;;;;5001236;28;20232;-76
2021/08/07 08:57:53;;;;;;;3.58;2.85;;;23.40;99.90;;;;;;5012222;28;20200;-77
2021/08/07 09:00:20;;;;;;;3.47;3.17;;;23.60;99.90;;;;;;5011120;28;20228;-77
2021/08/07 09:02:47;;;;;;;3.30;3.08;;;24.00;99.90;;;;;;5011378;28;20238;-77
2021/08/07 09:05:15;;;;;;;5.88;3.33;;;24.20;99.90;;;;;;5008297;28;20282;-77
2021/08/07 09:07:44;;;;;;;3.50;3.20;;;24.50;99.90;;;;;;5010711;28;20200;-77
2021/08/07 09:10:13;;;;;;;3.08;2.80;;;24.60;99.90;;;;;;5009083;28;20629;-77
2021/08/07 09:12:45;;;;;;;4.97;3.42;;;24.50;99.90;;;;;;5010643;28;20258;-77
2021/08/07 09:15:30;;;;;;;3.58;2.88;;;24.40;99.90;;;;;;5009228;28;20258;-77
2021/08/07 09:18:18;;;;;;;3.75;3.25;;;24.40;99.90;;;;;;5003814;28;20678;-76
2021/08/07 09:20:47;;;;;;;4.75;2.90;;;24.90;99.90;;;;;;5006251;28;20717;-75
2021/08/07 09:23:15;;;;;;;2.78;2.58;;;25.00;99.90;;;;;;5003539;28;20207;-76
2021/08/07 09:25:46;;;;;;;3.08;2.88;;;25.10;99.90;;;;;;5010885;28;20220;-76
2021/08/07 09:28:13;;;;;;;3.03;2.53;;;25.10;99.90;;;;;;5009626;28;20311;-75
2021/08/07 09:30:43;;;;;;;3.10;2.80;;;25.40;99.90;;;;;;5007741;28;21588;-76
2021/08/07 09:33:12;;;;;;;3.53;3.22;;;25.50;99.90;;;;;;5009094;28;20636;-76
2021/08/07 09:35:40;;;;;;;3.90;3.55;;;25.50;99.90;;;;;;5002747;28;20887;-76
2021/08/07 09:38:11;;;;;;;4.05;3.20;;;25.40;99.90;;;;;;5006449;28;20200;-78
2021/08/07 09:40:45;;;;;;;3.60;3.25;;;25.20;99.90;;;;;;5003432;28;20637;-77
2021/08/07 09:43:14;;;;;;;3.47;3.15;;;24.90;99.90;;;;;;5006981;28;20191;-77
2021/08/07 09:45:41;;;;;;;6.03;3.65;;;24.90;99.90;;;;;;5009027;28;20224;-76
2021/08/07 09:48:11;;;;;;;6.55;2.95;;;25.00;99.90;;;;;;5006921;28;20200;-76
2021/08/07 09:50:39;;;;;;;4.47;3.25;;;25.20;99.90;;;;;;5009869;28;20257;-75
2021/08/07 09:53:19;;;;;;;3.38;3.08;;;25.30;99.90;;;;;;5009695;28;20212;-76
2021/08/07 09:56:01;;;;;;;4.38;2.90;;;25.30;99.90;;;;;;5010405;28;20223;-76
2021/08/07 09:58:28;;;;;;;3.80;3.22;;;24.90;99.90;;;;;;5009067;28;20586;-76
2021/08/07 10:00:56;;;;;;;3.42;2.63;;;24.70;99.90;;;;;;5008492;28;20216;-76
2021/08/07 10:03:27;;;;;;;3.35;2.92;;;24.60;99.90;;;;;;5009167;28;20209;-76
2021/08/07 10:05:54;;;;;;;5.47;3.13;;;24.50;99.90;;;;;;5014834;28;20314;-76
2021/08/07 10:08:21;;;;;;;2.80;2.50;;;24.50;99.90;;;;;;5009603;28;20200;-75
2021/08/07 10:10:51;;;;;;;4.35;2.75;;;24.80;99.90;;;;;;5010510;28;20219;-75
2021/08/07 10:13:20;;;;;;;6.35;3.05;;;24.70;99.90;;;;;;5010887;28;20257;-77
2021/08/07 10:15:47;;;;;;;8.32;3.28;;;24.60;99.90;;;;;;5009221;28;20274;-73
2021/08/07 10:18:15;;;;;;;4.28;3.03;;;24.50;99.90;;;;;;5014428;28;20274;-76
2021/08/07 10:20:44;;;;;;;4.25;2.40;;;24.60;99.90;;;;;;5015853;28;20220;-76
2021/08/07 10:23:11;;;;;;;5.55;3.35;;;24.60;99.90;;;;;;5010547;28;20682;-76
2021/08/07 10:25:44;;;;;;;5.18;2.83;;;24.60;99.90;;;;;;5014017;28;20289;-76
2021/08/07 10:28:13;;;;;;;4.32;2.58;;;24.60;99.90;;;;;;5010704;28;20421;-77
2021/08/07 10:30:44;;;;;;;4.22;2.60;;;24.60;99.90;;;;;;5007937;28;20224;-76
2021/08/07 10:33:13;;;;;;;3.55;2.75;;;24.60;99.90;;;;;;5007020;28;20224;-77
2021/08/07 10:35:40;;;;;;;5.20;2.63;;;24.60;99.90;;;;;;5010140;28;20638;-76
2021/08/07 10:38:07;;;;;;;5.88;2.90;;;24.50;99.90;;;;;;5008279;28;20205;-76
2021/08/07 10:40:34;;;;;;;3.15;2.80;;;24.60;99.90;;;;;;5004649;28;20250;-76
2021/08/07 10:43:01;;;;;;;5.60;2.90;;;24.70;99.90;;;;;;5008531;28;20204;-76
2021/08/07 10:45:29;;;;;;;3.60;2.58;;;25.10;99.90;;;;;;5004592;28;20726;-76
2021/08/07 10:47:57;;;;;;;4.50;3.08;;;25.40;99.90;;;;;;5003679;28;20693;-76
2021/08/07 10:50:35;;;;;;;4.82;2.70;;;25.70;99.90;;;;;;5004371;28;20303;-76
2021/08/07 10:53:04;;;;;;;3.40;2.60;;;26.10;99.90;;;;;;5004772;28;20226;-74
2021/08/07 10:55:46;;;;;;;2.30;2.08;;;26.30;99.90;;;;;;5009057;28;20278;-77
2021/08/07 10:58:43;;;;;;;3.13;2.45;;;26.60;99.90;;;;;;5005338;28;20200;-76
2021/08/07 11:01:29;;;;;;;4.22;2.40;;;26.70;99.90;;;;;;5008399;28;20225;-77
2021/08/07 11:06:55;;;;;;;3.67;2.28;;;27.20;99.90;;;;;;5020211;28;20725;-69
2021/08/07 11:09:26;;;;;;;3.85;2.67;;;27.30;99.90;;;;;;5024349;28;20199;-70
2021/08/07 11:12:28;;;;;;;3.47;2.35;;;27.30;99.90;;;;;;5022404;28;20335;-70
2021/08/07 11:15:14;;;;;;;2.50;2.10;;;27.20;99.90;;;;;;5026265;28;20625;-70
2021/08/07 11:17:50;;;;;;;2.67;2.28;;;27.40;99.90;;;;;;5023003;28;20235;-70
2021/08/07 11:20:43;;;;;;;2.85;2.42;;;27.50;99.90;;;;;;5023352;28;20638;-69
2021/08/07 11:23:16;;;;;;;3.88;2.35;;;27.40;99.90;;;;;;5020867;28;20269;-69
2021/08/07 11:26:07;;;;;;;2.65;2.17;;;27.60;99.90;;;;;;5021632;28;20269;-69
2021/08/07 11:28:59;;;;;;;4.93;1.90;;;27.40;99.90;;;;;;5019995;28;20215;-71
2021/08/07 11:31:26;;;;;;;4.07;2.47;;;27.50;99.90;;;;;;5020344;28;20196;-70
2021/08/07 11:34:21;;;;;;;4.07;2.58;;;27.60;99.90;;;;;;5021985;28;20536;-70
2021/08/07 11:37:15;;;;;;;3.25;2.42;;;27.80;99.90;;;;;;5025223;28;20204;-69
2021/08/07 11:40:17;;;;;;;4.22;2.40;;;27.60;99.90;;;;;;5014250;28;20219;-71
2021/08/07 11:42:47;;;;;;;5.28;2.60;;;27.70;99.90;;;;;;4980370;28;20227;-69
2021/08/07 11:45:20;;;;;;;3.90;2.65;;;27.60;99.90;;;;;;5011810;28;20250;-70
2021/08/07 11:47:53;;;;;;;6.28;2.47;;;27.40;99.90;;;;;;5019992;28;20223;-69
2021/08/07 11:50:20;;;;;;;6.45;2.83;;;27.30;99.90;;;;;;5019031;28;20662;-71
2021/08/07 11:52:48;;;;;;;3.65;2.60;;;27.40;99.90;;;;;;5019390;28;20274;-69
2021/08/07 11:55:15;;;;;;;3.85;2.42;;;27.70;99.90;;;;;;5021994;28;20269;-70
2021/08/07 11:57:43;;;;;;;5.90;2.63;;;27.50;99.90;;;;;;5017073;28;20200;-69
2021/08/07 12:00:25;;;;;;;3.85;2.47;;;27.60;99.90;;;;;;5020987;28;20249;-71
2021/08/07 12:03:06;;;;;;;5.47;2.80;;;27.80;99.90;;;;;;5023103;28;20364;-70
2021/08/07 12:05:34;;;;;;;2.90;2.35;;;27.80;99.90;;;;;;5019784;28;20233;-69
2021/08/07 12:08:04;;;;;;;4.50;2.63;;;28.00;99.90;;;;;;5027492;28;20222;-72
2021/08/07 12:10:31;;;;;;;2.50;2.08;;;28.20;99.90;;;;;;5021929;28;20207;-70
2021/08/07 12:13:01;;;;;;;2.88;2.45;;;28.20;99.90;;;;;;5023776;28;20227;-68
2021/08/07 12:15:28;;;;;;;3.83;2.20;;;28.20;99.90;;;;;;5021805;28;20604;-70
2021/08/07 12:17:59;;;;;;;3.92;2.58;;;28.20;99.90;;;;;;5020790;28;20223;-69
2021/08/07 12:20:27;;;;;;;4.70;2.60;;;28.20;99.90;;;;;;5022200;28;20200;-71
2021/08/07 12:22:57;;;;;;;3.15;2.33;;;28.20;99.90;;;;;;5027540;28;20690;-69
2021/08/07 12:25:24;;;;;;;4.07;2.50;;;28.30;99.90;;;;;;5019399;28;20630;-70
2021/08/07 12:28:07;;;;;;;4.65;2.63;;;28.40;99.90;;;;;;5027123;28;20238;-70
2021/08/07 12:30:36;;;;;;;2.50;2.30;;;28.50;99.90;;;;;;5025147;28;20815;-71
2021/08/07 12:33:20;;;;;;;3.78;2.60;;;28.60;99.90;;;;;;5024452;28;20232;-72
2021/08/07 12:35:47;;;;;;;3.65;2.22;;;28.50;99.90;;;;;;5024397;28;20215;-70
2021/08/07 12:38:15;;;;;;;5.55;2.60;;;28.50;99.90;;;;;;5023447;28;20275;-70
2021/08/07 12:40:43;;;;;;;3.70;2.42;;;28.60;99.90;;;;;;5026479;28;20257;-70
2021/08/07 12:43:12;;;;;;;10.05;3.00;;;28.60;99.90;;;;;;5027126;28;20226;-70
2021/08/07 12:45:39;;;;;;;5.80;3.17;;;28.50;99.90;;;;;;5028686;28;20269;-70
2021/08/07 12:48:07;;;;;;;3.53;2.28;;;28.50;99.90;;;;;;5025529;28;20228;-70
2021/08/07 12:50:36;;;;;;;3.67;2.28;;;28.40;99.90;;;;;;5025251;28;20198;-70
2021/08/07 12:53:05;;;;;;;3.00;2.10;;;28.30;99.90;;;;;;5027599;28;20634;-69
2021/08/07 12:55:33;;;;;;;2.95;2.47;;;28.30;99.90;;;;;;5027967;28;20278;-71
2021/08/07 12:58:15;;;;;;;4.72;2.67;;;28.20;99.90;;;;;;5024224;28;20207;-70
2021/08/07 13:00:43;;;;;;;4.13;2.70;;;28.40;99.90;;;;;;5026240;28;20200;-70